createdAt,value
2022-12-09T00:00:10.640Z,25.97
2022-12-09T00:02:38.808Z,26.70
2022-12-09T00:05:06.688Z,28.23
2022-12-09T00:07:36.365Z,31.67
2022-12-09T00:10:04.783Z,28.03
2022-12-09T00:12:32.259Z,27.97
2022-12-09T00:14:59.421Z,31.20
2022-12-09T00:17:26.617Z,34.73
2022-12-09T00:19:53.817Z,30.60
2022-12-09T00:22:21.031Z,36.37
2022-12-09T00:24:48.466Z,36.77
2022-12-09T00:27:15.702Z,33.20
2022-12-09T00:29:42.881Z,29.27
2022-12-09T00:32:10.259Z,33.27
2022-12-09T00:34:37.655Z,31.43
2022-12-09T00:37:04.785Z,33.67
2022-12-09T00:39:32.013Z,34.40
2022-12-09T00:41:59.527Z,33.70
2022-12-09T00:44:26.663Z,34.87
2022-12-09T00:46:54.354Z,34.77
2022-12-09T00:49:21.745Z,34.87
2022-12-09T00:51:48.967Z,34.60
2022-12-09T00:54:16.152Z,30.97
2022-12-09T00:56:43.261Z,32.73
2022-12-09T00:59:10.378Z,32.13
2022-12-09T01:01:37.943Z,32.07
2022-12-09T01:04:08.338Z,31.80
2022-12-09T01:06:36.207Z,33.23
2022-12-09T01:09:04.160Z,31.73
2022-12-09T01:11:31.519Z,31.13
2022-12-09T01:14:01.218Z,28.13
2022-12-09T01:16:30.350Z,28.63
2022-12-09T01:19:02.505Z,34.40
2022-12-09T01:21:30.156Z,35.70
2022-12-09T01:23:57.522Z,31.47
2022-12-09T01:26:25.277Z,33.13
2022-12-09T01:28:53.395Z,36.73
2022-12-09T01:31:22.289Z,35.07
2022-12-09T01:33:49.848Z,33.60
2022-12-09T01:36:18.687Z,38.17
2022-12-09T01:38:47.196Z,36.53
2022-12-09T01:41:14.964Z,36.73
2022-12-09T01:43:42.292Z,36.93
2022-12-09T01:46:12.207Z,30.37
2022-12-09T01:48:45.443Z,34.10
2022-12-09T01:51:14.459Z,39.13
2022-12-09T01:53:43.417Z,37.10
2022-12-09T01:56:17.580Z,34.80
2022-12-09T01:58:45.429Z,35.20
2022-12-09T02:01:12.840Z,32.87
2022-12-09T02:03:40.291Z,37.53
2022-12-09T02:06:07.694Z,36.43
2022-12-09T02:08:34.931Z,35.57
2022-12-09T02:11:14.909Z,40.23
2022-12-09T02:13:51.557Z,43.13
2022-12-09T02:16:21.885Z,42.40
2022-12-09T02:19:03.371Z,40.20
2022-12-09T02:21:33.498Z,44.00
2022-12-09T02:24:04.807Z,43.57
2022-12-09T02:26:35.202Z,38.87
2022-12-09T02:29:02.517Z,38.47
2022-12-09T02:31:33.037Z,39.07
2022-12-09T02:34:03.144Z,40.00
2022-12-09T02:36:33.790Z,40.90
2022-12-09T02:39:00.934Z,39.07
2022-12-09T02:41:29.849Z,48.23
2022-12-09T02:44:00.959Z,39.27
2022-12-09T02:46:29.227Z,51.83
2022-12-09T02:48:57.957Z,51.67
2022-12-09T02:51:26.820Z,53.03
2022-12-09T02:53:56.094Z,58.40
2022-12-09T02:56:23.482Z,63.70
2022-12-09T02:58:50.624Z,70.00
2022-12-09T03:01:24.927Z,64.53
2022-12-09T03:03:54.334Z,69.07
2022-12-09T03:06:23.408Z,74.87
2022-12-09T03:09:03.317Z,71.43
2022-12-09T03:11:33.594Z,75.60
2022-12-09T03:14:09.862Z,74.70
2022-12-09T03:16:38.683Z,73.77
2022-12-09T03:19:19.297Z,77.97
2022-12-09T03:21:48.858Z,71.77
2022-12-09T03:24:18.989Z,72.53
2022-12-09T03:26:46.670Z,70.50
2022-12-09T03:29:17.824Z,84.63
2022-12-09T03:31:46.948Z,80.97
2022-12-09T03:34:18.869Z,74.87
2022-12-09T03:36:47.367Z,82.03
2022-12-09T03:39:15.747Z,88.30
2022-12-09T03:41:48.417Z,74.13
2022-12-09T03:44:15.708Z,71.73
2022-12-09T03:46:43.492Z,77.30
2022-12-09T03:49:10.981Z,63.17
2022-12-09T03:51:43.847Z,63.47
2022-12-09T03:54:17.298Z,64.93
2022-12-09T03:56:46.197Z,69.90
2022-12-09T03:59:14.413Z,62.83
2022-12-09T04:01:43.216Z,61.23
2022-12-09T04:04:11.247Z,72.90
2022-12-09T04:06:39.058Z,67.10
2022-12-09T04:09:06.784Z,63.07
2022-12-09T04:11:34.402Z,67.50
2022-12-09T04:14:01.995Z,71.60
2022-12-09T04:16:29.643Z,67.87
2022-12-09T04:18:56.906Z,85.40
2022-12-09T04:21:24.104Z,76.90
2022-12-09T04:23:51.586Z,79.60
2022-12-09T04:26:21.373Z,73.13
2022-12-09T04:28:48.960Z,159.83
2022-12-09T04:31:17.290Z,78.87
2022-12-09T04:33:45.062Z,75.93
2022-12-09T04:36:13.999Z,83.87
2022-12-09T04:38:42.005Z,133.37
2022-12-09T04:41:09.762Z,80.13
2022-12-09T04:43:37.121Z,78.07
2022-12-09T04:46:05.932Z,59.80
2022-12-09T04:48:34.239Z,97.67
2022-12-09T04:51:02.054Z,86.03
2022-12-09T04:53:29.396Z,86.70
2022-12-09T04:56:00.586Z,105.10
2022-12-09T04:58:27.812Z,71.33
2022-12-09T05:00:55.366Z,130.13
2022-12-09T05:03:23.295Z,58.37
2022-12-09T05:05:50.703Z,66.23
2022-12-09T05:08:18.155Z,102.53
2022-12-09T05:10:46.968Z,77.50
2022-12-09T05:13:14.623Z,121.87
2022-12-09T05:15:42.212Z,70.33
2022-12-09T05:18:09.612Z,86.10
2022-12-09T05:20:39.502Z,93.20
2022-12-09T05:23:09.914Z,62.70
2022-12-09T05:25:37.883Z,96.10
2022-12-09T05:28:05.220Z,79.47
2022-12-09T05:30:32.539Z,139.50
2022-12-09T05:32:59.958Z,121.87
2022-12-09T05:35:27.343Z,90.80
2022-12-09T05:37:54.882Z,100.43
2022-12-09T05:40:22.367Z,90.50
2022-12-09T05:42:49.729Z,68.17
2022-12-09T05:45:17.327Z,83.03
2022-12-09T05:47:44.872Z,77.17
2022-12-09T05:50:12.755Z,51.30
2022-12-09T05:52:40.885Z,61.30
2022-12-09T05:55:09.055Z,50.60
2022-12-09T05:57:37.333Z,69.73
2022-12-09T06:00:07.161Z,65.60
2022-12-09T06:02:35.154Z,66.47
2022-12-09T06:05:03.181Z,42.77
2022-12-09T06:07:31.093Z,54.50
2022-12-09T06:09:58.766Z,37.73
2022-12-09T06:12:26.295Z,45.53
2022-12-09T06:14:53.825Z,37.83
2022-12-09T06:17:21.505Z,48.80
2022-12-09T06:19:49.103Z,36.90
2022-12-09T06:22:16.833Z,33.43
2022-12-09T06:24:44.053Z,50.83
2022-12-09T06:27:11.702Z,88.97
2022-12-09T06:29:39.017Z,51.30
2022-12-09T06:32:06.468Z,42.33
2022-12-09T06:34:33.815Z,71.83
2022-12-09T06:37:01.473Z,63.43
2022-12-09T06:39:29.159Z,42.93
2022-12-09T06:41:56.580Z,58.27
2022-12-09T06:44:24.460Z,49.37
2022-12-09T06:46:52.106Z,51.17
2022-12-09T06:49:19.586Z,55.40
2022-12-09T06:51:47.149Z,52.50
2022-12-09T06:54:14.264Z,43.03
2022-12-09T06:56:41.885Z,61.43
2022-12-09T06:59:10.037Z,39.43
2022-12-09T07:01:37.843Z,85.17
2022-12-09T07:04:06.436Z,64.70
2022-12-09T07:06:38.510Z,95.37
2022-12-09T07:09:08.043Z,57.73
2022-12-09T07:11:35.922Z,45.57
2022-12-09T07:14:03.712Z,48.73
2022-12-09T07:16:31.858Z,55.33
2022-12-09T07:18:59.378Z,46.60
2022-12-09T07:21:27.642Z,90.67
2022-12-09T07:23:55.414Z,28.40
2022-12-09T07:26:22.872Z,46.90
2022-12-09T07:28:50.727Z,24.63
2022-12-09T07:31:19.494Z,62.77
2022-12-09T07:33:46.806Z,48.30
2022-12-09T07:36:19.224Z,50.33
2022-12-09T07:38:48.429Z,60.80
2022-12-09T07:41:18.796Z,65.37
2022-12-09T07:43:46.999Z,58.77
2022-12-09T07:46:20.026Z,57.17
2022-12-09T07:48:48.403Z,42.70
2022-12-09T07:51:16.954Z,49.30
2022-12-09T07:53:44.577Z,57.83
2022-12-09T07:56:14.793Z,46.93
2022-12-09T07:58:43.014Z,35.63
2022-12-09T08:01:12.067Z,28.80
2022-12-09T08:03:40.503Z,55.47
2022-12-09T08:06:09.102Z,33.80
2022-12-09T08:08:36.811Z,61.23
2022-12-09T08:11:11.882Z,47.80
2022-12-09T08:13:39.110Z,33.47
2022-12-09T08:16:07.025Z,38.20
2022-12-09T08:18:35.244Z,28.77
2022-12-09T08:21:22.845Z,39.50
2022-12-09T08:23:51.446Z,39.43
2022-12-09T08:26:19.927Z,34.90
2022-12-09T08:28:47.735Z,30.03
2022-12-09T08:31:16.794Z,33.00
2022-12-09T08:33:44.459Z,31.63
2022-12-09T08:36:16.621Z,32.27
2022-12-09T08:38:44.211Z,33.13
2022-12-09T08:41:11.831Z,32.07
2022-12-09T08:43:39.522Z,30.17
2022-12-09T08:46:07.120Z,29.23
2022-12-09T08:48:37.261Z,32.20
2022-12-09T08:51:05.154Z,32.23
2022-12-09T08:53:32.424Z,34.27
2022-12-09T08:55:59.954Z,30.47
2022-12-09T08:58:27.351Z,32.53
2022-12-09T09:00:54.541Z,35.83
2022-12-09T09:03:22.579Z,28.43
2022-12-09T09:05:50.310Z,36.67
2022-12-09T09:08:17.771Z,32.30
2022-12-09T09:10:45.083Z,32.83
2022-12-09T09:13:12.782Z,33.57
2022-12-09T09:15:40.500Z,35.53
2022-12-09T09:18:07.885Z,32.30
2022-12-09T09:20:35.143Z,29.33
2022-12-09T09:23:03.591Z,38.13
2022-12-09T09:25:31.328Z,34.63
2022-12-09T09:27:58.470Z,35.03
2022-12-09T09:30:26.062Z,31.90
2022-12-09T09:32:53.633Z,33.47
2022-12-09T09:35:21.364Z,27.63
2022-12-09T09:37:48.921Z,27.47
2022-12-09T09:40:16.800Z,33.30
2022-12-09T09:42:49.901Z,29.63
2022-12-09T09:45:19.322Z,31.97
2022-12-09T09:47:50.226Z,28.57
2022-12-09T09:50:27.733Z,34.57
2022-12-09T09:52:56.134Z,28.20
2022-12-09T09:55:27.382Z,33.60
2022-12-09T09:58:01.575Z,30.80
2022-12-09T10:00:30.897Z,32.27
2022-12-09T10:03:13.058Z,31.13
2022-12-09T10:05:48.135Z,34.93
2022-12-09T10:08:27.950Z,32.20
2022-12-09T10:10:58.641Z,35.53
2022-12-09T10:13:29.425Z,35.37
2022-12-09T10:16:17.774Z,34.37
2022-12-09T10:18:48.303Z,34.70
2022-12-09T10:21:17.944Z,32.23
2022-12-09T10:23:46.052Z,37.40
2022-12-09T10:26:20.321Z,33.93
2022-12-09T10:28:50.283Z,36.17
2022-12-09T10:31:17.982Z,34.40
2022-12-09T10:33:45.542Z,30.40
2022-12-09T10:36:35.231Z,32.23
2022-12-09T10:39:03.265Z,36.17
2022-12-09T10:42:01.535Z,31.17
2022-12-09T10:44:29.061Z,33.57
2022-12-09T10:47:05.097Z,23.30
2022-12-09T10:49:34.248Z,22.83
2022-12-09T10:52:02.408Z,28.33
2022-12-09T10:54:35.796Z,31.40
2022-12-09T10:57:03.555Z,32.77
2022-12-09T10:59:31.539Z,36.03
2022-12-09T11:02:00.113Z,36.03
2022-12-09T11:04:30.692Z,36.37
2022-12-09T11:07:00.926Z,37.07
2022-12-09T11:09:33.501Z,37.20
2022-12-09T11:12:01.410Z,38.63
2022-12-09T11:14:36.870Z,37.03
2022-12-09T11:17:16.504Z,40.00
2022-12-09T11:19:45.290Z,38.80
2022-12-09T11:22:22.253Z,39.00
2022-12-09T11:24:50.629Z,38.50
2022-12-09T11:27:29.048Z,40.57
2022-12-09T11:30:11.184Z,43.27
2022-12-09T11:32:52.226Z,47.57
2022-12-09T11:35:21.480Z,44.63
2022-12-09T11:37:48.832Z,46.23
2022-12-09T11:40:17.271Z,48.53
2022-12-09T11:42:44.509Z,41.63
2022-12-09T11:45:19.724Z,42.80
2022-12-09T11:48:22.986Z,42.23
2022-12-09T11:50:37.560Z,43.30
2022-12-09T11:53:14.009Z,45.73
2022-12-09T11:55:48.841Z,42.97
2022-12-09T11:58:18.812Z,45.73
2022-12-09T12:00:59.161Z,42.93
2022-12-09T12:03:30.783Z,53.47
2022-12-09T12:05:59.124Z,51.23
2022-12-09T12:08:28.570Z,54.83
2022-12-09T12:11:01.680Z,49.13
2022-12-09T12:13:30.471Z,46.57
2022-12-09T12:16:13.184Z,44.20
2022-12-09T12:18:45.108Z,46.20
2022-12-09T12:21:19.817Z,46.37
2022-12-09T12:23:52.711Z,50.53
2022-12-09T12:26:24.387Z,46.87
2022-12-09T12:29:02.579Z,46.10
2022-12-09T12:31:38.746Z,51.27
2022-12-09T12:34:24.138Z,46.30
2022-12-09T12:37:09.797Z,48.53
2022-12-09T12:40:09.470Z,48.07
2022-12-09T12:43:08.386Z,50.67
2022-12-09T12:46:02.664Z,49.80
2022-12-09T12:48:39.806Z,49.43
2022-12-09T12:51:25.834Z,49.17
2022-12-09T12:54:02.836Z,49.40
2022-12-09T12:56:37.890Z,44.03
2022-12-09T12:59:14.465Z,48.83
2022-12-09T13:01:55.365Z,42.23
2022-12-09T13:04:25.261Z,41.13
2022-12-09T13:07:15.671Z,42.90
2022-12-09T13:09:44.676Z,44.37
2022-12-09T13:12:17.152Z,39.53
2022-12-09T13:14:51.791Z,38.90
2022-12-09T13:17:20.345Z,42.57
2022-12-09T13:19:49.847Z,40.77
2022-12-09T13:22:27.156Z,40.30
2022-12-09T13:25:12.959Z,40.03
2022-12-09T13:27:44.088Z,40.27
2022-12-09T13:30:17.319Z,41.67
2022-12-09T13:32:59.799Z,42.33
2022-12-09T13:35:36.067Z,40.93
2022-12-09T13:38:03.163Z,41.67
2022-12-09T13:40:35.328Z,45.70
2022-12-09T13:43:02.448Z,47.20
2022-12-09T13:45:32.460Z,42.57
2022-12-09T13:48:03.493Z,42.77
2022-12-09T13:50:41.408Z,42.67
2022-12-09T13:53:20.578Z,44.17
2022-12-09T13:55:53.604Z,43.90
2022-12-09T13:58:39.182Z,40.27
2022-12-09T14:01:12.438Z,39.83
2022-12-09T14:03:48.588Z,39.30
2022-12-09T14:06:19.408Z,41.63
2022-12-09T14:08:48.833Z,47.23
2022-12-09T14:11:47.142Z,44.33
2022-12-09T14:14:26.640Z,42.43
2022-12-09T14:17:04.045Z,45.13
2022-12-09T14:19:49.429Z,44.93
2022-12-09T14:22:19.831Z,46.80
2022-12-09T14:24:57.153Z,46.03
2022-12-09T14:27:25.483Z,41.40
2022-12-09T14:29:52.628Z,43.97
2022-12-09T14:32:53.803Z,43.60
2022-12-09T14:35:24.709Z,48.13
2022-12-09T14:38:10.464Z,40.40
2022-12-09T14:40:43.883Z,40.53
2022-12-09T14:43:17.070Z,41.50
2022-12-09T14:46:04.139Z,44.67
2022-12-09T14:48:37.679Z,37.23
2022-12-09T14:51:08.279Z,38.77
2022-12-09T14:53:36.953Z,40.47
2022-12-09T14:56:04.765Z,36.33
2022-12-09T14:58:31.882Z,42.23
2022-12-09T15:01:02.946Z,35.63
2022-12-09T15:03:34.433Z,35.43
2022-12-09T15:06:07.626Z,36.60
2022-12-09T15:08:35.980Z,34.87
2022-12-09T15:11:17.922Z,39.40
2022-12-09T15:13:47.384Z,35.67
2022-12-09T15:16:15.862Z,33.67
2022-12-09T15:18:44.413Z,35.60
2022-12-09T15:21:12.753Z,36.83
2022-12-09T15:23:40.766Z,39.90
2022-12-09T15:26:28.249Z,42.43
2022-12-09T15:28:56.577Z,36.10
2022-12-09T15:31:26.603Z,38.73
2022-12-09T15:33:58.151Z,38.93
2022-12-09T15:36:28.180Z,38.40
2022-12-09T15:38:58.485Z,33.20
2022-12-09T15:41:46.633Z,34.63
2022-12-09T15:44:15.108Z,34.20
2022-12-09T15:46:43.414Z,35.97
2022-12-09T15:49:12.380Z,31.27
2022-12-09T15:51:41.374Z,34.77
2022-12-09T15:54:11.021Z,41.67
2022-12-09T15:56:51.720Z,41.73
2022-12-09T15:59:21.313Z,48.33
2022-12-09T16:01:53.525Z,42.90
2022-12-09T16:04:23.112Z,38.40
2022-12-09T16:06:50.978Z,44.53
2022-12-09T16:09:21.823Z,41.93
2022-12-09T16:11:50.045Z,38.67
2022-12-09T16:14:18.741Z,41.00
2022-12-09T16:17:06.112Z,41.27
2022-12-09T16:19:36.228Z,34.53
2022-12-09T16:22:03.407Z,36.03
2022-12-09T16:24:44.476Z,35.23
2022-12-09T16:27:22.122Z,38.77
2022-12-09T16:29:54.287Z,36.37
2022-12-09T16:32:25.663Z,39.93
2022-12-09T16:34:54.753Z,39.23
2022-12-09T16:37:29.675Z,40.00
2022-12-09T16:39:57.902Z,41.17
2022-12-09T16:42:29.895Z,38.67
2022-12-09T16:45:15.574Z,42.50
2022-12-09T16:47:42.630Z,33.67
2022-12-09T16:50:09.835Z,38.70
2022-12-09T16:52:37.026Z,39.60
2022-12-09T16:55:07.065Z,42.73
2022-12-09T16:57:34.196Z,40.90
2022-12-09T17:00:01.328Z,46.80
2022-12-09T17:02:34.649Z,42.20
2022-12-09T17:05:01.974Z,40.93
2022-12-09T17:07:29.156Z,51.67
2022-12-09T17:09:56.512Z,45.00
2022-12-09T17:12:23.829Z,52.20
2022-12-09T17:14:51.576Z,45.23
2022-12-09T17:17:19.116Z,55.83
2022-12-09T17:19:46.203Z,54.60
2022-12-09T17:22:13.457Z,50.83
2022-12-09T17:24:40.661Z,52.60
2022-12-09T17:27:07.757Z,54.70
2022-12-09T17:29:34.912Z,52.13
2022-12-09T17:32:02.049Z,49.70
2022-12-09T17:34:29.192Z,46.57
2022-12-09T17:36:56.333Z,47.40
2022-12-09T17:39:24.801Z,49.73
2022-12-09T17:41:52.128Z,47.50
2022-12-09T17:44:21.277Z,45.80
2022-12-09T17:46:50.477Z,46.93
2022-12-09T17:49:18.414Z,51.67
2022-12-09T17:51:45.945Z,48.80
2022-12-09T17:54:13.122Z,47.17
2022-12-09T17:56:40.257Z,47.10
2022-12-09T17:59:09.798Z,50.10
2022-12-09T18:01:37.578Z,43.80
2022-12-09T18:04:11.710Z,45.87
2022-12-09T18:06:40.261Z,47.60
2022-12-09T18:09:09.343Z,49.17
2022-12-09T18:11:36.840Z,45.00
2022-12-09T18:14:04.508Z,45.40
2022-12-09T18:16:32.060Z,49.70
2022-12-09T18:19:06.700Z,46.03
2022-12-09T18:21:34.552Z,46.27
2022-12-09T18:24:01.641Z,52.87
2022-12-09T18:26:32.003Z,52.40
2022-12-09T18:29:01.212Z,52.90
2022-12-09T18:31:28.680Z,48.83
2022-12-09T18:33:55.822Z,52.73
2022-12-09T18:36:24.825Z,52.23
2022-12-09T18:38:52.309Z,51.63
2022-12-09T18:41:21.646Z,48.77
2022-12-09T18:43:49.858Z,51.60
2022-12-09T18:46:25.472Z,42.97
2022-12-09T18:48:57.439Z,45.83
2022-12-09T18:51:24.702Z,41.10
2022-12-09T18:53:51.888Z,39.97
2022-12-09T18:56:19.236Z,41.40
2022-12-09T19:01:34.226Z,44.93
2022-12-09T19:04:02.881Z,44.73
2022-12-09T19:06:31.320Z,48.50
2022-12-09T19:09:01.994Z,46.53
2022-12-09T19:11:30.836Z,44.40
2022-12-09T19:13:58.043Z,47.60
2022-12-09T19:16:26.051Z,43.00
2022-12-09T19:18:56.520Z,51.10
2022-12-09T19:21:24.571Z,46.77
2022-12-09T19:23:51.759Z,47.70
2022-12-09T19:26:20.077Z,55.73
2022-12-09T19:28:48.896Z,52.73
2022-12-09T19:31:16.016Z,43.50
2022-12-09T19:33:43.627Z,45.03
2022-12-09T19:36:11.175Z,43.77
2022-12-09T19:38:38.690Z,44.33
2022-12-09T19:41:06.224Z,44.90
2022-12-09T19:43:33.539Z,53.33
2022-12-09T19:46:06.525Z,45.40
2022-12-09T19:48:40.988Z,44.17
2022-12-09T19:51:12.053Z,43.53
2022-12-09T19:53:39.272Z,40.13
2022-12-09T19:56:08.319Z,45.10
2022-12-09T19:58:39.289Z,47.63
2022-12-09T20:01:14.286Z,51.63
2022-12-09T20:03:43.429Z,46.30
2022-12-09T20:06:16.206Z,49.87
2022-12-09T20:08:43.597Z,41.57
2022-12-09T20:11:13.712Z,48.47
2022-12-09T20:13:41.238Z,48.00
2022-12-09T20:16:09.798Z,45.10
2022-12-09T20:18:37.516Z,49.20
2022-12-09T20:21:05.512Z,50.97
2022-12-09T20:23:32.601Z,54.00
2022-12-09T20:26:06.487Z,50.27
2022-12-09T20:28:33.636Z,45.50
2022-12-09T20:31:04.924Z,50.50
2022-12-09T20:33:32.121Z,52.57
2022-12-09T20:36:06.499Z,47.77
2022-12-09T20:38:35.123Z,51.00
2022-12-09T20:41:09.935Z,49.23
2022-12-09T20:43:40.661Z,45.10
2022-12-09T20:46:10.760Z,47.70
2022-12-09T20:48:38.607Z,51.00
2022-12-09T20:51:10.149Z,55.07
2022-12-09T20:53:37.324Z,58.53
2022-12-09T20:56:05.016Z,53.47
2022-12-09T20:58:32.141Z,52.00
2022-12-09T21:01:09.381Z,54.27
2022-12-09T21:03:36.619Z,51.63
2022-12-09T21:06:04.891Z,51.63
2022-12-09T21:08:32.345Z,54.83
2022-12-09T21:11:06.869Z,62.80
2022-12-09T21:13:36.866Z,55.87
2022-12-09T21:16:08.001Z,54.60
2022-12-09T21:18:35.533Z,50.57
2022-12-09T21:21:02.933Z,58.80
2022-12-09T21:23:34.437Z,61.60
2022-12-09T21:26:08.921Z,55.50
2022-12-09T21:28:37.014Z,54.07
2022-12-09T21:31:11.920Z,56.40
2022-12-09T21:33:39.623Z,60.07
2022-12-09T21:36:11.147Z,61.63
2022-12-09T21:38:38.659Z,56.43
2022-12-09T21:41:07.073Z,57.93
2022-12-09T21:43:34.964Z,58.10
2022-12-09T21:46:03.205Z,56.37
2022-12-09T21:48:30.361Z,59.63
2022-12-09T21:50:57.958Z,59.77
2022-12-09T21:53:25.086Z,67.23
2022-12-09T21:55:53.138Z,58.93
2022-12-09T21:58:20.302Z,56.87
2022-12-09T22:00:47.480Z,61.50
2022-12-09T22:03:14.644Z,68.33
2022-12-09T22:05:41.775Z,65.53
2022-12-09T22:08:08.909Z,65.00
2022-12-09T22:10:39.205Z,65.20
2022-12-09T22:13:06.316Z,58.40
2022-12-09T22:15:33.556Z,61.50
2022-12-09T22:18:00.639Z,66.07
2022-12-09T22:21:07.802Z,62.77
2022-12-09T22:23:14.860Z,61.70
2022-12-09T22:25:41.996Z,67.33
2022-12-09T22:28:09.161Z,65.40
2022-12-09T22:30:37.242Z,68.53
2022-12-09T22:33:04.370Z,70.33
2022-12-09T22:35:31.522Z,64.60
2022-12-09T22:37:59.411Z,68.63
2022-12-09T22:40:26.751Z,66.33
2022-12-09T22:42:53.856Z,71.67
2022-12-09T22:45:20.996Z,74.70
2022-12-09T22:47:48.357Z,64.93
2022-12-09T22:50:15.433Z,68.60
2022-12-09T22:52:42.527Z,68.80
2022-12-09T22:55:09.951Z,74.63
2022-12-09T22:57:37.078Z,73.87
2022-12-09T23:00:11.389Z,74.47
2022-12-09T23:02:39.417Z,74.83
2022-12-09T23:05:07.760Z,66.50
2022-12-09T23:07:35.779Z,81.40
2022-12-09T23:10:03.251Z,65.33
2022-12-09T23:12:30.369Z,72.27
2022-12-09T23:14:57.420Z,68.33
2022-12-09T23:17:24.591Z,70.37
2022-12-09T23:19:51.717Z,75.50
2022-12-09T23:22:18.826Z,75.63
2022-12-09T23:24:45.937Z,78.87
2022-12-09T23:27:13.063Z,72.47
2022-12-09T23:29:40.333Z,69.97
2022-12-09T23:32:07.436Z,79.90
2022-12-09T23:34:34.516Z,76.00
2022-12-09T23:37:01.714Z,79.83
2022-12-09T23:39:28.831Z,78.63
2022-12-09T23:41:56.069Z,77.87
2022-12-09T23:44:23.142Z,66.93
2022-12-09T23:46:50.384Z,73.90
2022-12-09T23:49:17.956Z,76.60
2022-12-09T23:51:45.385Z,70.53
2022-12-09T23:54:14.610Z,73.50
2022-12-09T23:56:44.163Z,77.47
2022-12-09T23:59:13.192Z,83.00
